Time;durP1;ratioP1;P1;durP2;ratioP2;P2;SDS_P1;SDS_P2;PMS_P1;PMS_P2;Temp;Humidity;BMP_temperature;BMP_pressure;BME280_temperature;BME280_humidity;BME280_pressure;Samples;Min_cycle;Max_cycle;Signal;HPM_P1;HPM_P2
2023/06/25 00:00:28;;;;;;;91.97;59.22;;;21.70;74.50;;;;;;4958452;28;86139;-72
2023/06/25 00:02:54;;;;;;;93.07;59.85;;;21.70;74.80;;;;;;4959056;28;84685;-72
2023/06/25 00:05:20;;;;;;;91.57;59.55;;;21.70;75.00;;;;;;4955970;28;86747;-72
2023/06/25 00:07:46;;;;;;;92.50;59.88;;;21.60;74.80;;;;;;4963007;28;84710;-71
2023/06/25 00:10:11;;;;;;;91.85;59.67;;;21.60;75.00;;;;;;4965333;28;89446;-72
2023/06/25 00:12:37;;;;;;;91.15;59.20;;;21.60;75.10;;;;;;4953080;28;87826;-70
2023/06/25 00:15:03;;;;;;;90.90;59.10;;;21.50;75.20;;;;;;4946136;28;88990;-72
2023/06/25 00:17:29;;;;;;;92.30;58.92;;;21.60;75.60;;;;;;4969744;28;85017;-72
2023/06/25 00:19:56;;;;;;;90.95;58.72;;;21.50;75.50;;;;;;4960177;28;84989;-72
2023/06/25 00:22:22;;;;;;;92.65;60.08;;;21.50;75.40;;;;;;4963147;28;84773;-72
2023/06/25 00:24:48;;;;;;;92.10;59.38;;;21.50;75.60;;;;;;4954453;28;86688;-73
2023/06/25 00:27:13;;;;;;;92.63;60.20;;;21.50;75.80;;;;;;4959146;28;85572;-72
2023/06/25 00:29:39;;;;;;;92.03;59.20;;;21.50;75.80;;;;;;4957347;28;84568;-71
2023/06/25 00:32:05;;;;;;;92.63;59.47;;;21.40;76.00;;;;;;4959678;28;85385;-72
2023/06/25 00:34:31;;;;;;;92.18;59.35;;;21.40;75.90;;;;;;4968193;28;85512;-71
2023/06/25 00:36:57;;;;;;;91.88;59.53;;;21.40;76.30;;;;;;4958923;28;84897;-71
2023/06/25 00:39:23;;;;;;;92.05;59.42;;;21.40;76.30;;;;;;4958919;28;88536;-71
2023/06/25 00:41:48;;;;;;;92.78;59.47;;;21.40;76.60;;;;;;4961139;28;86936;-72
2023/06/25 00:44:14;;;;;;;92.47;60.20;;;21.40;76.60;;;;;;4985905;28;86161;-72
2023/06/25 00:46:40;;;;;;;91.13;58.75;;;21.30;76.40;;;;;;4962764;28;86703;-72
2023/06/25 00:49:06;;;;;;;92.35;59.78;;;21.30;77.00;;;;;;4958616;28;84834;-72
2023/06/25 00:51:35;;;;;;;91.35;58.50;;;21.30;76.60;;;;;;4962884;28;85044;-71
2023/06/25 00:54:05;;;;;;;90.93;59.10;;;21.30;77.80;;;;;;4961408;28;87724;-71
2023/06/25 00:56:37;;;;;;;92.27;59.67;;;21.30;77.00;;;;;;4958503;28;88121;-71
2023/06/25 00:59:03;;;;;;;93.10;59.25;;;21.20;76.80;;;;;;4951620;28;86099;-72
2023/06/25 01:01:54;;;;;;;91.63;59.08;;;21.20;77.20;;;;;;4943804;28;86405;-71
2023/06/25 01:04:25;;;;;;;90.07;58.60;;;21.20;77.10;;;;;;4959848;28;85102;-72
2023/06/25 01:06:52;;;;;;;;;;;21.20;77.20;;;;;;4961073;28;85235;-72
2023/06/25 01:09:20;;;;;;;91.18;59.03;;;21.20;77.00;;;;;;4951187;28;83694;-72
2023/06/25 01:12:03;;;;;;;90.95;58.50;;;21.10;77.20;;;;;;4950880;28;86687;-71
2023/06/25 01:14:29;;;;;;;91.25;59.17;;;21.10;77.70;;;;;;4959979;28;84965;-72
2023/06/25 01:16:55;;;;;;;91.40;59.33;;;21.10;77.60;;;;;;4953953;28;85021;-71
2023/06/25 01:19:29;;;;;;;90.40;58.80;;;21.10;77.80;;;;;;4954321;28;89639;-72
2023/06/25 01:21:57;;;;;;;92.10;59.53;;;21.10;77.40;;;;;;4948426;28;86264;-72
2023/06/25 01:24:22;;;;;;;92.63;59.78;;;21.00;77.80;;;;;;4952486;28;87355;-72
2023/06/25 01:26:51;;;;;;;90.07;58.15;;;21.00;77.80;;;;;;4962064;28;88431;-73
2023/06/25 01:29:17;;;;;;;92.65;59.75;;;21.00;78.30;;;;;;4953509;28;88675;-72
2023/06/25 01:31:42;;;;;;;90.95;58.17;;;21.00;78.00;;;;;;4958673;28;84509;-72
2023/06/25 01:34:08;;;;;;;91.43;59.55;;;21.00;78.50;;;;;;4959767;28;85046;-71
2023/06/25 01:36:40;;;;;;;91.50;58.22;;;21.00;77.80;;;;;;4963252;28;84891;-72
2023/06/25 01:39:09;;;;;;;90.47;58.25;;;21.00;78.10;;;;;;4953277;28;88037;-71
2023/06/25 01:41:34;;;;;;;92.05;59.80;;;21.00;78.80;;;;;;4958096;28;89255;-71
2023/06/25 01:44:00;;;;;;;91.30;58.97;;;21.00;78.50;;;;;;4953587;28;90329;-72
2023/06/25 01:46:26;;;;;;;91.47;59.45;;;20.90;78.70;;;;;;4961548;28;89428;-74
2023/06/25 01:48:51;;;;;;;91.63;59.97;;;20.90;78.70;;;;;;4956144;28;85025;-71
2023/06/25 01:51:17;;;;;;;89.97;58.80;;;20.90;78.50;;;;;;4957993;28;86722;-72
2023/06/25 01:53:42;;;;;;;92.85;59.58;;;20.90;79.00;;;;;;4954912;28;85683;-72
2023/06/25 01:56:08;;;;;;;92.13;59.55;;;20.90;79.20;;;;;;4962356;28;85642;-71
2023/06/25 01:58:33;;;;;;;92.53;59.75;;;20.90;79.00;;;;;;4963988;28;85148;-72
2023/06/25 02:00:59;;;;;;;92.20;59.50;;;20.90;78.60;;;;;;4956911;28;87031;-72
2023/06/25 02:03:24;;;;;;;91.28;58.83;;;20.90;79.10;;;;;;4960246;28;84786;-73
2023/06/25 02:05:50;;;;;;;90.60;58.83;;;20.80;79.60;;;;;;4962496;28;85864;-71
2023/06/25 02:08:16;;;;;;;91.47;59.72;;;20.80;79.60;;;;;;4956054;28;86208;-71
2023/06/25 02:10:41;;;;;;;91.38;59.47;;;20.80;79.00;;;;;;4955485;28;85244;-72
2023/06/25 02:13:07;;;;;;;90.72;58.53;;;20.80;80.00;;;;;;4960073;28;85786;-72
2023/06/25 02:15:33;;;;;;;91.13;59.22;;;20.80;79.10;;;;;;4960125;28;85309;-72
2023/06/25 02:17:58;;;;;;;92.40;59.45;;;20.70;79.40;;;;;;4955510;28;85230;-71
2023/06/25 02:20:24;;;;;;;91.70;59.58;;;20.80;80.10;;;;;;4953238;28;85216;-72
2023/06/25 02:22:50;;;;;;;91.95;59.67;;;20.70;79.60;;;;;;4955290;28;86884;-72
2023/06/25 02:25:15;;;;;;;91.40;59.55;;;20.70;79.60;;;;;;4954715;28;86736;-72
2023/06/25 02:27:41;;;;;;;90.35;58.33;;;20.70;79.50;;;;;;4957502;28;86459;-72
2023/06/25 02:30:07;;;;;;;92.95;60.00;;;20.70;80.10;;;;;;4955938;28;85383;-72
2023/06/25 02:32:32;;;;;;;91.95;59.67;;;20.70;79.90;;;;;;4963059;28;84291;-73
2023/06/25 02:34:58;;;;;;;92.32;60.30;;;20.70;79.90;;;;;;4958556;28;84822;-72
2023/06/25 02:37:24;;;;;;;91.53;59.30;;;20.70;79.80;;;;;;4958812;28;84921;-72
2023/06/25 02:39:49;;;;;;;91.28;59.45;;;20.70;80.40;;;;;;4955342;28;85364;-72
2023/06/25 02:42:15;;;;;;;91.93;59.17;;;20.60;80.00;;;;;;4954662;28;86328;-71
2023/06/25 02:44:40;;;;;;;92.25;59.80;;;20.60;80.20;;;;;;4962291;28;85192;-72
2023/06/25 02:47:06;;;;;;;93.32;60.08;;;20.60;80.50;;;;;;4961443;28;85905;-73
2023/06/25 02:49:31;;;;;;;92.40;60.10;;;20.60;79.60;;;;;;4960941;28;85031;-72
2023/06/25 02:51:57;;;;;;;92.72;60.70;;;20.60;81.00;;;;;;4951523;28;86155;-72
2023/06/25 02:54:22;;;;;;;92.75;59.92;;;20.60;80.70;;;;;;4954217;28;84968;-72
2023/06/25 02:56:50;;;;;;;92.18;60.00;;;20.50;80.30;;;;;;4957516;28;86722;-73
2023/06/25 02:59:16;;;;;;;94.88;61.15;;;20.50;80.70;;;;;;4954747;28;86130;-72
2023/06/25 03:01:41;;;;;;;94.10;60.70;;;20.50;80.30;;;;;;4956321;28;86205;-72
2023/06/25 03:04:07;;;;;;;94.72;61.25;;;20.50;79.90;;;;;;4946347;28;85425;-72
2023/06/25 03:06:33;;;;;;;95.85;61.25;;;20.50;80.70;;;;;;4953407;28;86361;-72
2023/06/25 03:08:58;;;;;;;93.82;60.55;;;20.50;80.40;;;;;;4951637;28;86290;-72
2023/06/25 03:11:24;;;;;;;93.53;61.08;;;20.50;80.30;;;;;;4950585;28;85719;-72
2023/06/25 03:13:49;;;;;;;93.53;60.45;;;20.50;80.60;;;;;;4957861;28;86267;-72
2023/06/25 03:16:15;;;;;;;94.13;60.70;;;20.40;80.30;;;;;;4950361;28;86552;-72
2023/06/25 03:18:40;;;;;;;92.22;59.83;;;20.40;81.40;;;;;;4946380;28;85276;-73
2023/06/25 03:21:06;;;;;;;93.55;60.85;;;20.50;81.40;;;;;;4944144;28;86311;-72
2023/06/25 03:23:31;;;;;;;92.65;60.08;;;20.50;81.00;;;;;;4946698;28;88038;-72
2023/06/25 03:25:57;;;;;;;94.18;60.17;;;20.40;80.70;;;;;;4952135;28;85373;-72
2023/06/25 03:28:23;;;;;;;93.70;61.05;;;20.40;80.90;;;;;;4950497;28;85106;-72
2023/06/25 03:30:48;;;;;;;93.13;60.63;;;20.40;81.70;;;;;;4947359;28;85586;-72
2023/06/25 03:33:14;;;;;;;95.00;61.20;;;20.40;80.90;;;;;;4950560;28;85528;-72
2023/06/25 03:35:39;;;;;;;93.88;60.97;;;20.30;80.60;;;;;;4946105;28;85186;-71
2023/06/25 03:38:05;;;;;;;93.70;60.72;;;20.30;81.20;;;;;;4948425;28;84624;-71
2023/06/25 03:40:30;;;;;;;92.05;60.45;;;20.30;80.70;;;;;;4951209;28;85070;-72
2023/06/25 03:42:56;;;;;;;93.85;61.35;;;20.30;80.70;;;;;;4945574;28;87024;-73
2023/06/25 03:45:21;;;;;;;92.38;60.20;;;20.30;80.70;;;;;;4946493;28;89116;-71
2023/06/25 03:47:47;;;;;;;93.13;60.97;;;20.30;81.80;;;;;;4951794;28;84651;-72
2023/06/25 03:50:12;;;;;;;93.85;60.95;;;20.20;80.90;;;;;;4955903;28;86110;-72
2023/06/25 03:52:38;;;;;;;92.18;60.40;;;20.20;81.00;;;;;;4953494;28;86328;-71
2023/06/25 03:55:04;;;;;;;94.97;61.05;;;20.20;80.90;;;;;;4950443;28;85120;-71
2023/06/25 03:57:29;;;;;;;92.60;60.50;;;20.20;80.90;;;;;;4954287;28;85829;-72
2023/06/25 03:59:55;;;;;;;92.75;60.03;;;20.20;81.70;;;;;;4941614;28;85145;-72
2023/06/25 04:02:21;;;;;;;94.57;61.15;;;20.20;80.70;;;;;;4949625;28;85247;-71
2023/06/25 04:04:46;;;;;;;91.70;59.45;;;20.20;81.10;;;;;;4957154;28;85062;-72
2023/06/25 04:07:12;;;;;;;91.38;59.60;;;20.20;81.20;;;;;;4949799;28;87097;-72
2023/06/25 04:09:37;;;;;;;93.18;60.15;;;20.20;81.20;;;;;;4948057;28;85227;-72
2023/06/25 04:12:03;;;;;;;93.57;60.03;;;20.20;81.60;;;;;;4949627;28;84533;-72
2023/06/25 04:14:29;;;;;;;93.25;60.42;;;20.30;80.50;;;;;;4953380;28;85254;-71
2023/06/25 04:16:54;;;;;;;91.05;59.35;;;20.20;80.60;;;;;;4948668;28;86598;-72
2023/06/25 04:19:20;;;;;;;93.82;61.08;;;20.30;80.90;;;;;;4961657;28;88724;-71
2023/06/25 04:21:45;;;;;;;92.80;59.55;;;20.30;79.80;;;;;;4951366;28;89444;-72
2023/06/25 04:24:11;;;;;;;92.28;60.22;;;20.20;80.90;;;;;;4940229;28;88667;-72
2023/06/25 04:26:36;;;;;;;92.68;60.17;;;20.20;80.50;;;;;;4951212;28;85673;-72
2023/06/25 04:29:02;;;;;;;93.13;60.47;;;20.30;81.30;;;;;;4956062;28;87496;-72
2023/06/25 04:31:28;;;;;;;93.75;59.85;;;20.30;79.90;;;;;;4969047;28;85545;-72
2023/06/25 04:33:54;;;;;;;90.85;60.00;;;20.40;80.70;;;;;;4955066;28;88384;-71
2023/06/25 04:36:20;;;;;;;91.45;60.03;;;20.50;81.00;;;;;;4963382;28;88814;-72
2023/06/25 04:38:45;;;;;;;93.30;60.13;;;20.50;80.50;;;;;;4962313;28;84744;-72
2023/06/25 04:41:11;;;;;;;92.55;59.85;;;20.50;80.60;;;;;;4962928;28;85166;-72
2023/06/25 04:43:36;;;;;;;91.70;59.50;;;20.60;80.30;;;;;;4960081;28;86055;-71
2023/06/25 04:46:02;;;;;;;90.70;59.55;;;20.70;79.70;;;;;;4961362;28;85300;-72
2023/06/25 04:48:27;;;;;;;92.80;60.22;;;20.70;79.60;;;;;;4970192;28;84688;-72
2023/06/25 04:50:53;;;;;;;90.75;59.10;;;20.70;79.70;;;;;;4957414;28;85629;-72
2023/06/25 04:53:19;;;;;;;91.90;59.63;;;20.70;79.50;;;;;;4963191;28;85120;-72
2023/06/25 04:55:44;;;;;;;91.57;60.22;;;20.80;79.30;;;;;;4959518;28;85982;-72
2023/06/25 04:58:10;;;;;;;93.68;60.17;;;20.80;79.30;;;;;;4961018;28;84849;-72
2023/06/25 05:00:35;;;;;;;92.55;59.95;;;20.80;79.40;;;;;;4954615;28;85047;-71
2023/06/25 05:03:01;;;;;;;93.30;60.08;;;20.90;79.70;;;;;;4955950;28;85320;-72
2023/06/25 05:05:26;;;;;;;93.25;60.70;;;20.90;79.40;;;;;;4963968;28;86306;-72
2023/06/25 05:07:52;;;;;;;91.78;60.33;;;20.90;78.90;;;;;;4960199;28;85610;-71
2023/06/25 05:10:19;;;;;;;92.45;59.22;;;20.90;79.10;;;;;;4955263;28;85671;-72
2023/06/25 05:12:44;;;;;;;94.20;60.40;;;20.90;78.60;;;;;;4965425;28;84803;-71
2023/06/25 05:15:10;;;;;;;91.68;60.13;;;20.90;78.60;;;;;;4963134;28;86051;-72
2023/06/25 05:17:36;;;;;;;91.57;58.75;;;20.90;78.30;;;;;;4959469;28;84698;-72
2023/06/25 05:20:01;;;;;;;90.43;58.85;;;21.00;78.20;;;;;;4958579;28;85177;-72
2023/06/25 05:22:27;;;;;;;92.40;60.05;;;21.00;78.00;;;;;;4966096;28;85289;-72
2023/06/25 05:24:52;;;;;;;91.18;59.47;;;21.00;77.70;;;;;;4955409;28;86372;-72
2023/06/25 05:27:18;;;;;;;92.07;60.05;;;21.00;78.00;;;;;;4961976;28;86580;-71
2023/06/25 05:29:44;;;;;;;91.63;59.35;;;21.00;77.50;;;;;;4965741;28;84965;-72
2023/06/25 05:32:09;;;;;;;91.60;58.67;;;21.10;77.30;;;;;;4964900;28;86105;-72
2023/06/25 05:34:35;;;;;;;92.90;59.90;;;21.10;78.10;;;;;;4962913;28;85537;-72
2023/06/25 05:37:00;;;;;;;91.57;59.55;;;21.20;77.20;;;;;;4959936;28;86901;-72
2023/06/25 05:39:29;;;;;;;89.13;57.72;;;21.20;76.90;;;;;;4963624;28;85349;-71
2023/06/25 05:41:56;;;;;;;91.15;58.78;;;21.20;77.40;;;;;;4957113;28;85886;-72
2023/06/25 05:44:22;;;;;;;92.90;59.42;;;21.20;76.80;;;;;;4958484;28;85880;-71
2023/06/25 05:46:47;;;;;;;88.97;57.65;;;21.30;76.50;;;;;;4959374;28;86352;-73
2023/06/25 05:49:13;;;;;;;90.60;58.67;;;21.30;76.10;;;;;;4959327;28;84661;-72
2023/06/25 05:51:39;;;;;;;89.57;57.97;;;21.40;76.30;;;;;;4958660;28;84565;-72
2023/06/25 05:54:04;;;;;;;88.95;56.85;;;21.40;77.10;;;;;;4951617;28;86228;-71
2023/06/25 05:56:30;;;;;;;87.90;56.15;;;21.50;77.50;;;;;;4958960;28;86861;-71
2023/06/25 05:58:56;;;;;;;88.30;56.47;;;21.50;77.80;;;;;;4949990;28;85246;-75
2023/06/25 06:01:22;;;;;;;91.10;58.13;;;21.60;77.80;;;;;;4976999;28;85787;-73
2023/06/25 06:03:47;;;;;;;94.07;61.13;;;21.60;78.10;;;;;;4970515;28;85263;-74
2023/06/25 06:06:13;;;;;;;100.32;63.70;;;21.60;78.10;;;;;;4997164;22;84871;-49
2023/06/25 06:08:38;;;;;;;94.75;59.88;;;21.60;78.60;;;;;;4984395;28;85246;-53
2023/06/25 06:11:04;;;;;;;101.40;63.72;;;21.70;78.20;;;;;;4982232;28;85294;-48
2023/06/25 06:13:30;;;;;;;96.13;61.83;;;21.70;78.90;;;;;;4978988;28;85247;-47
2023/06/25 06:15:55;;;;;;;98.50;61.63;;;21.70;78.30;;;;;;4975188;28;86193;-47
2023/06/25 06:18:21;;;;;;;97.40;61.28;;;21.70;78.00;;;;;;4979729;28;86927;-46
2023/06/25 06:20:46;;;;;;;97.95;60.13;;;21.80;77.60;;;;;;4981644;28;85795;-47
2023/06/25 06:23:12;;;;;;;98.25;59.33;;;21.80;76.40;;;;;;4972343;28;88816;-47
2023/06/25 06:25:38;;;;;;;92.70;59.55;;;21.80;75.50;;;;;;4978549;28;85838;-44
2023/06/25 06:28:03;;;;;;;92.90;58.38;;;21.80;75.50;;;;;;4984028;28;85680;-52
2023/06/25 06:30:29;;;;;;;93.28;58.22;;;21.90;75.10;;;;;;4981895;28;89157;-49
2023/06/25 06:32:55;;;;;;;89.70;57.55;;;21.80;74.60;;;;;;4988743;28;85269;-47
2023/06/25 06:35:20;;;;;;;91.88;57.70;;;21.90;73.60;;;;;;4987193;28;85178;-50
2023/06/25 06:37:46;;;;;;;89.63;56.80;;;21.90;73.40;;;;;;4987478;28;85733;-48
2023/06/25 06:40:11;;;;;;;89.70;56.85;;;21.90;73.00;;;;;;4979503;28;85178;-46
2023/06/25 06:42:37;;;;;;;89.35;56.70;;;21.90;71.60;;;;;;4989658;28;86605;-49
2023/06/25 06:45:03;;;;;;;90.40;56.50;;;22.00;71.00;;;;;;4985117;28;85697;-47
2023/06/25 06:47:29;;;;;;;90.07;56.55;;;22.00;70.00;;;;;;4983097;28;86125;-48
2023/06/25 06:49:54;;;;;;;89.07;56.65;;;22.00;70.60;;;;;;4986836;28;85690;-50
2023/06/25 06:52:27;;;;;;;90.25;56.33;;;22.00;71.00;;;;;;4975834;28;85128;-48
2023/06/25 06:54:53;;;;;;;88.45;56.53;;;22.10;70.60;;;;;;4985769;28;85342;-52
2023/06/25 06:57:18;;;;;;;88.60;56.17;;;22.10;70.40;;;;;;4974042;28;85121;-49
2023/06/25 06:59:45;;;;;;;88.53;56.65;;;22.10;71.70;;;;;;4977566;28;85234;-48
2023/06/25 07:02:22;;;;;;;88.35;56.15;;;22.10;70.50;;;;;;4987432;28;85867;-51
2023/06/25 07:04:48;;;;;;;88.43;56.08;;;22.20;70.90;;;;;;4991664;28;85352;-47
2023/06/25 07:07:14;;;;;;;90.07;56.55;;;22.20;70.90;;;;;;4982570;28;86106;-50
2023/06/25 07:09:53;;;;;;;89.68;56.38;;;22.20;71.50;;;;;;4982745;28;86375;-49
2023/06/25 07:12:19;;;;;;;88.57;56.22;;;22.20;71.20;;;;;;4987549;28;85829;-47
2023/06/25 07:14:45;;;;;;;89.13;56.25;;;22.30;71.30;;;;;;4993181;28;84590;-48
2023/06/25 07:17:11;;;;;;;89.05;56.40;;;22.30;71.40;;;;;;4990976;28;85314;-49
2023/06/25 07:19:36;;;;;;;88.18;56.15;;;22.30;70.50;;;;;;4988156;28;85740;-50
2023/06/25 07:22:20;;;;;;;90.32;56.95;;;22.30;70.80;;;;;;4988601;28;85587;-50
2023/06/25 07:24:46;;;;;;;90.20;56.22;;;22.40;70.90;;;;;;4978230;28;85378;-50
2023/06/25 07:27:12;;;;;;;89.72;56.10;;;22.40;71.20;;;;;;4978780;28;85159;-50
2023/06/25 07:29:37;;;;;;;88.80;56.55;;;22.40;71.10;;;;;;4988621;28;84564;-49
2023/06/25 07:32:03;;;;;;;89.03;56.28;;;22.50;70.70;;;;;;4986227;28;85262;-50
2023/06/25 07:34:29;;;;;;;89.78;56.33;;;22.50;70.70;;;;;;4991517;28;88555;-46
2023/06/25 07:36:55;;;;;;;90.07;56.47;;;22.50;70.80;;;;;;4984393;28;84750;-48
2023/06/25 07:39:29;;;;;;;89.60;56.47;;;22.50;70.70;;;;;;4987740;28;86623;-48
2023/06/25 07:41:56;;;;;;;89.10;56.10;;;22.60;70.90;;;;;;4982845;28;85048;-49
2023/06/25 07:44:22;;;;;;;89.40;56.28;;;22.60;71.80;;;;;;4988873;28;86977;-47
2023/06/25 07:46:48;;;;;;;90.85;56.80;;;22.70;70.80;;;;;;4982279;28;90300;-51
2023/06/25 07:49:14;;;;;;;89.15;55.63;;;22.70;70.60;;;;;;4981998;28;86250;-48
2023/06/25 07:51:45;;;;;;;91.05;56.83;;;22.70;70.90;;;;;;4976839;28;85177;-52
2023/06/25 07:54:11;;;;;;;89.47;56.30;;;22.80;70.70;;;;;;4977590;28;85499;-53
2023/06/25 07:56:36;;;;;;;88.38;56.35;;;22.80;70.70;;;;;;4979955;28;84739;-50
2023/06/25 07:59:02;;;;;;;88.75;56.10;;;22.90;70.70;;;;;;4971459;28;87026;-50
2023/06/25 08:01:29;;;;;;;89.75;55.95;;;22.90;70.80;;;;;;4980649;28;85238;-50
2023/06/25 08:03:56;;;;;;;89.40;56.30;;;22.90;70.50;;;;;;4977805;28;86143;-48
2023/06/25 08:06:21;;;;;;;89.05;56.40;;;23.00;70.20;;;;;;4989865;28;91771;-49
2023/06/25 08:08:47;;;;;;;90.05;56.50;;;23.00;70.50;;;;;;4980253;28;90369;-53
2023/06/25 08:11:13;;;;;;;90.95;56.90;;;23.10;70.20;;;;;;4979920;28;85837;-51
2023/06/25 08:13:39;;;;;;;91.20;57.22;;;23.10;69.90;;;;;;4977167;28;85281;-56
2023/06/25 08:16:04;;;;;;;90.90;56.72;;;23.20;69.70;;;;;;4974419;28;85896;-55
2023/06/25 08:18:30;;;;;;;93.32;56.78;;;23.30;69.90;;;;;;4986072;28;85625;-49
2023/06/25 08:20:55;;;;;;;91.75;57.35;;;23.40;69.10;;;;;;4977544;28;85438;-56
2023/06/25 08:23:21;;;;;;;91.05;56.58;;;23.40;68.30;;;;;;4979055;28;85197;-55
2023/06/25 08:25:47;;;;;;;89.68;56.78;;;23.60;68.40;;;;;;4984654;28;85072;-54
2023/06/25 08:28:13;;;;;;;92.00;57.40;;;23.60;68.10;;;;;;4977222;28;86691;-53
2023/06/25 08:30:39;;;;;;;89.53;56.80;;;23.70;67.80;;;;;;4983141;28;85081;-56
2023/06/25 08:33:05;;;;;;;93.05;57.25;;;23.70;67.60;;;;;;4981859;28;84541;-58
2023/06/25 08:35:30;;;;;;;89.78;57.05;;;23.80;68.90;;;;;;4978074;28;85361;-50
2023/06/25 08:37:56;;;;;;;90.53;57.03;;;23.80;67.60;;;;;;4981264;28;85402;-55
2023/06/25 08:40:22;;;;;;;89.72;56.53;;;23.90;67.80;;;;;;4979572;28;85370;-58
2023/06/25 08:42:49;;;;;;;90.07;57.08;;;23.90;68.10;;;;;;4980873;28;88902;-58
2023/06/25 08:45:14;;;;;;;92.93;56.67;;;23.90;68.00;;;;;;4980060;28;85734;-55
2023/06/25 08:47:40;;;;;;;92.18;56.78;;;24.00;68.00;;;;;;4978850;28;87167;-58
2023/06/25 08:50:08;;;;;;;90.10;56.67;;;24.10;67.90;;;;;;4973627;28;85564;-58
2023/06/25 08:52:34;;;;;;;92.57;57.38;;;24.10;67.20;;;;;;4980273;28;85020;-56
2023/06/25 08:55:00;;;;;;;89.97;56.88;;;24.10;67.30;;;;;;4982743;28;85217;-60
2023/06/25 08:57:26;;;;;;;90.35;57.17;;;24.20;67.40;;;;;;4998391;22;86104;-72
2023/06/25 08:59:51;;;;;;;89.93;56.90;;;24.20;67.20;;;;;;4970964;28;86757;-73
2023/06/25 09:02:18;;;;;;;90.82;56.90;;;24.30;67.20;;;;;;4978559;28;90677;-72
2023/06/25 09:04:46;;;;;;;90.82;57.42;;;24.30;67.30;;;;;;4977305;28;85913;-73
2023/06/25 09:07:15;;;;;;;92.53;56.92;;;24.40;67.50;;;;;;4978266;28;86455;-73
2023/06/25 09:09:51;;;;;;;92.20;57.33;;;24.40;67.10;;;;;;4961435;28;87508;-73
2023/06/25 09:12:22;;;;;;;93.05;57.47;;;24.40;67.90;;;;;;4976598;28;89385;-71
2023/06/25 09:14:47;;;;;;;;;;;24.50;67.90;;;;;;4984695;28;86268;-74
2023/06/25 09:17:19;;;;;;;90.40;56.92;;;24.50;68.60;;;;;;4988453;28;86725;-74
2023/06/25 09:19:44;;;;;;;90.85;57.53;;;24.60;68.50;;;;;;4976125;28;84921;-74
2023/06/25 09:22:10;;;;;;;93.85;57.33;;;24.60;68.10;;;;;;4979968;28;84765;-73
2023/06/25 09:24:42;;;;;;;92.00;57.53;;;24.60;67.80;;;;;;4979548;28;87030;-73
2023/06/25 09:27:10;;;;;;;91.20;57.95;;;24.70;67.60;;;;;;4981691;28;85124;-73
2023/06/25 09:29:36;;;;;;;93.15;57.83;;;24.70;69.00;;;;;;4979213;28;84965;-74
2023/06/25 09:32:07;;;;;;;90.70;56.90;;;24.80;66.80;;;;;;4974343;28;86063;-75
2023/06/25 09:34:33;;;;;;;91.35;57.40;;;24.80;67.70;;;;;;4961693;28;85363;-73
2023/06/25 09:37:01;;;;;;;92.15;57.70;;;24.80;67.50;;;;;;4939555;28;87745;-74
2023/06/25 09:39:26;;;;;;;91.88;57.65;;;24.80;67.30;;;;;;4954410;28;85218;-73
2023/06/25 09:41:53;;;;;;;91.78;57.40;;;24.80;67.20;;;;;;4944671;28;85001;-75
2023/06/25 09:44:21;;;;;;;91.63;57.85;;;24.90;67.30;;;;;;4950454;28;85924;-74
2023/06/25 09:46:47;;;;;;;93.97;57.53;;;24.90;67.30;;;;;;4941523;28;86795;-74
2023/06/25 09:49:15;;;;;;;91.10;57.35;;;24.90;66.60;;;;;;4959603;28;85811;-74
2023/06/25 09:51:50;;;;;;;90.55;57.08;;;25.00;67.20;;;;;;4946767;28;86038;-74
2023/06/25 09:54:22;;;;;;;90.65;57.70;;;25.00;66.20;;;;;;4948837;28;85048;-74
2023/06/25 09:56:49;;;;;;;92.25;57.47;;;25.00;65.90;;;;;;4937532;28;90767;-73
2023/06/25 09:59:16;;;;;;;91.75;57.40;;;25.10;66.20;;;;;;4946894;28;86152;-74
2023/06/25 10:01:42;;;;;;;91.63;57.60;;;25.10;65.70;;;;;;4949262;28;85821;-74
2023/06/25 10:04:08;;;;;;;91.07;57.38;;;25.20;66.40;;;;;;4947734;28;85122;-74
2023/06/25 10:06:35;;;;;;;91.10;57.40;;;25.20;66.90;;;;;;4948747;28;84753;-73
2023/06/25 10:09:05;;;;;;;92.15;57.75;;;25.20;66.20;;;;;;4943947;28;87325;-74
2023/06/25 10:11:31;;;;;;;91.53;57.47;;;25.20;65.80;;;;;;4943472;28;88891;-74
2023/06/25 10:13:58;;;;;;;90.93;57.20;;;25.20;66.40;;;;;;4943066;28;85162;-74
2023/06/25 10:16:29;;;;;;;90.93;57.28;;;25.30;64.90;;;;;;4945689;28;86682;-74
2023/06/25 10:18:56;;;;;;;92.20;57.78;;;25.30;65.70;;;;;;4942457;28;86430;-73
2023/06/25 10:21:24;;;;;;;90.90;57.30;;;25.40;64.40;;;;;;4945364;28;85333;-73
2023/06/25 10:23:58;;;;;;;92.03;57.65;;;25.40;65.10;;;;;;4940414;28;87689;-73
2023/06/25 10:26:34;;;;;;;92.95;57.60;;;25.40;64.40;;;;;;4945144;28;85321;-74
2023/06/25 10:29:04;;;;;;;91.25;57.97;;;25.50;65.90;;;;;;4942794;28;86574;-74
2023/06/25 10:31:38;;;;;;;90.33;57.07;;;25.50;64.30;;;;;;4937196;28;90451;-74
2023/06/25 10:34:07;;;;;;;90.93;57.72;;;25.50;64.60;;;;;;4932186;28;86607;-73
2023/06/25 10:36:34;;;;;;;90.35;57.30;;;25.60;64.10;;;;;;4942146;28;85375;-73
2023/06/25 10:39:00;;;;;;;91.43;57.90;;;25.60;65.20;;;;;;4948465;28;84777;-74
2023/06/25 10:41:30;;;;;;;90.78;57.42;;;25.60;63.70;;;;;;4934615;28;88884;-73
2023/06/25 10:43:57;;;;;;;90.47;57.57;;;25.60;63.50;;;;;;4937792;28;85597;-74
2023/06/25 10:46:32;;;;;;;93.40;57.78;;;25.60;63.60;;;;;;4931100;28;86406;-74
2023/06/25 10:48:59;;;;;;;91.40;57.95;;;25.70;63.70;;;;;;4939486;28;88104;-74
2023/06/25 10:51:26;;;;;;;91.00;57.67;;;25.70;63.70;;;;;;4951582;28;87372;-74
2023/06/25 10:53:53;;;;;;;90.60;57.45;;;25.80;63.80;;;;;;4959927;28;85949;-73
2023/06/25 10:56:19;;;;;;;91.22;57.65;;;25.80;64.20;;;;;;4949219;28;85667;-74
2023/06/25 10:58:45;;;;;;;92.22;57.88;;;25.80;63.90;;;;;;4949380;28;86649;-74
2023/06/25 11:01:10;;;;;;;91.32;57.33;;;25.80;62.50;;;;;;4941822;28;84985;-74
2023/06/25 11:03:37;;;;;;;93.43;58.03;;;25.80;62.80;;;;;;4952846;28;85682;-74
2023/06/25 11:06:03;;;;;;;90.68;57.45;;;25.90;62.60;;;;;;4935916;28;86596;-74
2023/06/25 11:08:29;;;;;;;92.65;57.63;;;25.90;62.50;;;;;;4945894;28;90354;-74
2023/06/25 11:10:55;;;;;;;91.60;57.72;;;25.90;62.20;;;;;;4945721;28;85368;-74
2023/06/25 11:13:20;;;;;;;91.43;57.85;;;26.00;62.40;;;;;;4948945;28;84870;-74
2023/06/25 11:15:46;;;;;;;91.22;57.90;;;26.00;63.20;;;;;;4948409;28;85546;-74
2023/06/25 11:18:11;;;;;;;92.82;57.63;;;26.00;62.30;;;;;;4946220;28;85311;-74
2023/06/25 11:20:41;;;;;;;91.88;57.97;;;26.10;61.80;;;;;;4948373;28;85405;-74
2023/06/25 11:23:10;;;;;;;91.15;57.58;;;26.10;62.40;;;;;;4952667;28;86984;-73
2023/06/25 11:25:36;;;;;;;92.80;57.90;;;26.00;62.40;;;;;;4941611;28;87323;-74
2023/06/25 11:28:08;;;;;;;91.43;57.88;;;26.10;60.60;;;;;;4937202;28;86865;-74
2023/06/25 11:30:34;;;;;;;91.97;58.00;;;26.20;61.90;;;;;;4944784;28;86128;-73
2023/06/25 11:33:10;;;;;;;91.40;58.00;;;26.20;61.80;;;;;;4942951;28;84994;-73
2023/06/25 11:35:36;;;;;;;91.95;58.17;;;26.20;61.50;;;;;;4948562;28;85977;-72
2023/06/25 11:38:01;;;;;;;93.72;57.90;;;26.20;61.00;;;;;;4952551;28;85738;-72
2023/06/25 11:40:29;;;;;;;94.95;58.42;;;26.30;60.70;;;;;;4942345;28;85533;-72
2023/06/25 11:42:55;;;;;;;93.40;58.20;;;26.30;61.50;;;;;;4933171;28;85435;-73
2023/06/25 11:45:21;;;;;;;92.43;58.17;;;26.30;61.30;;;;;;4940295;28;86118;-74
2023/06/25 11:47:56;;;;;;;93.32;58.47;;;26.30;61.40;;;;;;4947002;28;86974;-73
2023/06/25 11:50:23;;;;;;;92.60;58.15;;;26.30;60.50;;;;;;4952519;28;85549;-72
2023/06/25 11:52:53;;;;;;;93.53;58.40;;;26.30;60.50;;;;;;4947342;28;85343;-72
2023/06/25 11:55:21;;;;;;;94.75;58.63;;;26.30;61.00;;;;;;4948498;28;90527;-74
2023/06/25 11:57:47;;;;;;;94.15;57.92;;;26.30;60.90;;;;;;4937376;28;94671;-72
2023/06/25 12:00:14;;;;;;;93.82;57.92;;;26.20;61.40;;;;;;4955455;28;90411;-75
2023/06/25 12:02:40;;;;;;;101.05;59.50;;;26.20;61.50;;;;;;4956128;28;90894;-73
2023/06/25 12:05:06;;;;;;;97.10;58.60;;;26.20;60.80;;;;;;4938602;28;91459;-72
2023/06/25 12:07:31;;;;;;;93.35;58.25;;;26.10;60.40;;;;;;4947601;28;90500;-75
2023/06/25 12:09:57;;;;;;;95.88;58.90;;;26.10;59.70;;;;;;4941392;28;90473;-75
2023/06/25 12:12:23;;;;;;;97.35;58.40;;;26.10;58.80;;;;;;4946750;28;90226;-76
2023/06/25 12:14:48;;;;;;;94.10;58.38;;;26.10;57.00;;;;;;4943734;28;91034;-73
2023/06/25 12:17:14;;;;;;;91.38;57.85;;;26.00;56.00;;;;;;4950085;28;89939;-72
2023/06/25 12:19:41;;;;;;;94.72;58.80;;;26.00;57.10;;;;;;4940502;28;89735;-72
2023/06/25 12:22:07;;;;;;;93.43;58.10;;;26.00;54.10;;;;;;4945381;28;89717;-73
2023/06/25 12:24:33;;;;;;;95.50;58.50;;;26.00;54.30;;;;;;4946708;28;89259;-72